createdAt,value
2019-03-08T00:01:59.119Z,44.55
2019-03-08T00:04:29.452Z,44.56
2019-03-08T00:06:59.827Z,44.49
2019-03-08T00:09:30.118Z,44.50
2019-03-08T00:12:00.420Z,44.47
2019-03-08T00:14:30.961Z,44.46
2019-03-08T00:17:01.308Z,44.45
2019-03-08T00:19:31.626Z,44.42
2019-03-08T00:22:01.933Z,44.46
2019-03-08T00:24:32.226Z,44.51
2019-03-08T00:27:02.688Z,44.48
2019-03-08T00:29:32.919Z,44.48
2019-03-08T00:32:03.293Z,44.49
2019-03-08T00:34:33.514Z,44.50
2019-03-08T00:37:03.790Z,44.48
2019-03-08T00:39:33.996Z,44.44
2019-03-08T00:42:04.471Z,44.49
2019-03-08T00:44:34.833Z,44.44
2019-03-08T00:47:05.247Z,44.44
2019-03-08T00:49:35.464Z,44.36
2019-03-08T00:52:06.774Z,44.43
2019-03-08T00:54:37.180Z,44.33
2019-03-08T00:57:07.470Z,44.34
2019-03-08T00:59:37.775Z,44.37
2019-03-08T01:02:08.064Z,44.42
2019-03-08T01:04:38.370Z,44.48
2019-03-08T01:07:08.740Z,44.56
2019-03-08T01:09:40.152Z,44.56
2019-03-08T01:12:10.382Z,44.57
2019-03-08T01:14:40.813Z,44.46
2019-03-08T01:17:11.159Z,44.46
2019-03-08T01:19:41.585Z,44.47
2019-03-08T01:22:11.872Z,44.50
2019-03-08T01:24:42.131Z,44.47
2019-03-08T01:27:12.453Z,44.39
2019-03-08T01:29:42.678Z,44.47
2019-03-08T01:32:13.155Z,44.50
2019-03-08T01:34:43.393Z,44.48
2019-03-08T01:37:13.741Z,44.41
2019-03-08T01:39:44.032Z,44.38
2019-03-08T01:42:14.311Z,44.35
2019-03-08T01:44:44.731Z,44.36
2019-03-08T01:47:15.142Z,44.32
2019-03-08T01:49:45.463Z,44.25
2019-03-08T01:52:15.765Z,44.29
2019-03-08T01:54:48.408Z,44.28
2019-03-08T01:57:18.992Z,44.25
2019-03-08T01:59:49.315Z,44.35
2019-03-08T02:02:19.596Z,44.34
2019-03-08T02:04:49.904Z,44.29
2019-03-08T02:07:20.349Z,44.22
2019-03-08T02:09:50.896Z,44.40
2019-03-08T02:12:21.120Z,44.33
2019-03-08T02:14:51.561Z,44.38
2019-03-08T02:17:21.879Z,44.27
2019-03-08T02:19:52.234Z,44.23
2019-03-08T02:22:23.604Z,44.33
2019-03-08T02:24:54.107Z,44.42
2019-03-08T02:27:24.363Z,44.37
2019-03-08T02:29:54.671Z,44.28
2019-03-08T02:32:24.931Z,44.39
2019-03-08T02:34:56.339Z,44.22
2019-03-08T02:37:26.676Z,44.27
2019-03-08T02:39:57.038Z,44.29
2019-03-08T02:42:28.370Z,44.25
2019-03-08T02:44:58.578Z,44.11
2019-03-08T02:47:29.213Z,44.19
2019-03-08T02:49:59.470Z,44.21
2019-03-08T02:52:29.786Z,44.08
2019-03-08T02:55:00.403Z,44.08
2019-03-08T02:57:30.703Z,44.14
2019-03-08T03:00:00.971Z,44.15
2019-03-08T03:02:31.785Z,44.14
2019-03-08T03:05:02.243Z,44.10
2019-03-08T03:07:32.625Z,44.07
2019-03-08T03:10:02.927Z,44.05
2019-03-08T03:12:33.300Z,44.11
2019-03-08T03:15:03.624Z,44.10
2019-03-08T03:17:35.043Z,44.18
2019-03-08T03:20:06.248Z,44.22
2019-03-08T03:22:36.630Z,44.12
2019-03-08T03:25:07.009Z,44.11
2019-03-08T03:27:37.567Z,44.11
2019-03-08T03:30:08.351Z,44.04
2019-03-08T03:32:39.676Z,44.01
2019-03-08T03:35:09.996Z,43.96
2019-03-08T03:37:40.269Z,43.97
2019-03-08T03:40:11.413Z,43.85
2019-03-08T03:42:41.683Z,43.98
2019-03-08T03:45:12.189Z,43.97
2019-03-08T03:47:42.438Z,44.01
2019-03-08T03:50:12.701Z,44.11
2019-03-08T03:52:43.241Z,44.12
2019-03-08T03:55:14.884Z,43.99
2019-03-08T03:57:45.216Z,44.06
2019-03-08T04:00:16.325Z,44.11
2019-03-08T04:02:46.862Z,44.10
2019-03-08T04:05:18.281Z,44.07
2019-03-08T04:07:48.488Z,44.04
2019-03-08T04:10:18.765Z,44.12
2019-03-08T04:12:49.119Z,44.06
2019-03-08T04:15:20.441Z,44.07
2019-03-08T04:17:51.019Z,44.09
2019-03-08T04:20:21.270Z,43.79
2019-03-08T04:22:51.555Z,43.60
2019-03-08T04:25:21.881Z,43.45
2019-03-08T04:27:52.275Z,43.33
2019-03-08T04:30:22.931Z,43.26
2019-03-08T04:32:53.316Z,43.15
2019-03-08T04:35:23.544Z,43.07
2019-03-08T04:37:53.809Z,42.99
2019-03-08T04:40:24.125Z,42.93
2019-03-08T04:42:54.394Z,42.87
2019-03-08T04:45:24.751Z,42.42
2019-03-08T04:47:57.717Z,42.30
2019-03-08T04:50:31.016Z,42.01
2019-03-08T04:53:01.324Z,41.72
2019-03-08T04:55:31.946Z,41.56
2019-03-08T04:58:02.290Z,41.46
2019-03-08T05:00:32.612Z,41.24
2019-03-08T05:03:03.109Z,41.09
2019-03-08T05:05:33.449Z,40.96
2019-03-08T05:08:04.858Z,40.85
2019-03-08T05:10:35.200Z,40.69
2019-03-08T05:13:05.444Z,40.52
2019-03-08T05:15:35.826Z,40.36
2019-03-08T05:18:06.115Z,40.27
2019-03-08T05:20:36.404Z,40.18
2019-03-08T05:23:06.732Z,40.12
2019-03-08T05:25:37.638Z,40.01
2019-03-08T05:28:07.954Z,39.94
2019-03-08T05:30:38.226Z,39.91
2019-03-08T05:33:08.643Z,39.82
2019-03-08T05:35:38.874Z,39.71
2019-03-08T05:38:09.170Z,39.64
2019-03-08T05:40:39.464Z,39.58
2019-03-08T05:43:09.652Z,39.55
2019-03-08T05:45:39.977Z,39.39
2019-03-08T05:48:10.499Z,39.31
2019-03-08T05:50:40.709Z,39.29
2019-03-08T05:53:11.180Z,39.30
2019-03-08T05:55:41.410Z,39.35
2019-03-08T05:58:11.765Z,39.53
2019-03-08T06:00:42.112Z,39.50
2019-03-08T06:03:12.379Z,39.38
2019-03-08T06:05:42.852Z,39.27
2019-03-08T06:08:13.200Z,39.46
2019-03-08T06:10:43.414Z,39.48
2019-03-08T06:13:13.804Z,39.59
2019-03-08T06:15:44.428Z,39.54
2019-03-08T06:18:14.802Z,39.70
2019-03-08T06:20:45.122Z,38.16
2019-03-08T06:23:15.396Z,36.91
2019-03-08T06:25:45.698Z,36.90
2019-03-08T06:28:16.442Z,37.50
2019-03-08T06:30:46.738Z,37.61
2019-03-08T06:33:16.995Z,37.98
2019-03-08T06:35:47.784Z,38.23
2019-03-08T06:38:18.005Z,38.45
2019-03-08T06:40:48.318Z,38.55
2019-03-08T06:43:18.764Z,38.51
2019-03-08T06:45:49.227Z,38.50
2019-03-08T06:48:19.575Z,38.53
2019-03-08T06:50:49.957Z,38.41
2019-03-08T06:53:20.219Z,36.57
2019-03-08T06:55:51.293Z,36.43
2019-03-08T06:58:45.894Z,37.23
2019-03-08T07:01:23.084Z,37.50
2019-03-08T07:03:53.409Z,37.96
2019-03-08T07:06:23.681Z,38.04
2019-03-08T07:08:54.029Z,38.15
2019-03-08T07:11:24.293Z,38.21
2019-03-08T07:13:54.552Z,38.19
2019-03-08T07:16:25.221Z,38.22
2019-03-08T07:18:55.654Z,38.29
2019-03-08T07:21:44.828Z,38.32
2019-03-08T07:24:33.997Z,38.37
2019-03-08T07:27:34.278Z,38.43
2019-03-08T07:30:29.930Z,38.49
2019-03-08T07:33:17.890Z,38.51
2019-03-08T07:36:25.528Z,38.55
2019-03-08T07:39:14.841Z,38.62
2019-03-08T07:41:53.202Z,38.68
2019-03-08T07:44:35.657Z,38.73
2019-03-08T07:47:40.248Z,38.74
2019-03-08T07:50:43.507Z,38.77
2019-03-08T07:53:31.239Z,38.77
2019-03-08T07:56:20.543Z,38.83
2019-03-08T07:59:15.795Z,38.83
2019-03-08T08:02:13.969Z,38.87
2019-03-08T08:05:01.915Z,38.91
2019-03-08T08:07:57.628Z,38.94
2019-03-08T08:10:41.004Z,38.92
2019-03-08T08:13:42.251Z,38.97
2019-03-08T08:16:30.263Z,38.97
2019-03-08T08:19:19.453Z,39.04
2019-03-08T08:22:17.667Z,38.99
2019-03-08T08:25:09.981Z,39.04
2019-03-08T08:28:05.694Z,39.10
2019-03-08T08:30:47.816Z,39.11
2019-03-08T08:33:31.815Z,39.11
2019-03-08T08:36:20.969Z,39.12
2019-03-08T08:38:58.768Z,39.14
2019-03-08T08:41:47.414Z,39.15
2019-03-08T08:44:35.243Z,39.18
2019-03-08T08:47:27.496Z,39.21
2019-03-08T08:50:15.372Z,39.21
2019-03-08T08:53:13.704Z,39.23
2019-03-08T08:55:55.724Z,39.28
2019-03-08T08:58:25.101Z,39.32
2019-03-08T09:00:54.389Z,39.34
2019-03-08T09:03:23.631Z,39.34
2019-03-08T09:05:51.331Z,39.32
2019-03-08T09:08:19.353Z,39.32
2019-03-08T09:11:00.948Z,39.35
2019-03-08T09:13:56.212Z,39.34
2019-03-08T09:16:51.484Z,39.38
2019-03-08T09:19:43.775Z,39.42
2019-03-08T09:22:31.517Z,39.45
2019-03-08T09:25:19.591Z,39.45
2019-03-08T09:28:00.322Z,39.47
2019-03-08T09:30:38.499Z,39.51
2019-03-08T09:33:23.801Z,39.50
2019-03-08T09:36:19.593Z,39.50
2019-03-08T09:39:08.668Z,39.52
2019-03-08T09:42:00.996Z,39.57
2019-03-08T09:44:48.959Z,39.55
2019-03-08T09:47:29.644Z,39.54
2019-03-08T09:50:24.922Z,39.51
2019-03-08T09:53:17.224Z,39.55
2019-03-08T09:55:54.837Z,39.58
2019-03-08T09:58:46.929Z,39.52
2019-03-08T10:01:36.040Z,39.52
2019-03-08T10:04:27.986Z,39.65
2019-03-08T10:07:12.610Z,39.64
2019-03-08T10:09:53.535Z,39.72
2019-03-08T10:12:58.501Z,39.66
2019-03-08T10:15:34.403Z,39.64
2019-03-08T10:18:30.846Z,39.67
2019-03-08T10:21:32.181Z,39.74
2019-03-08T10:24:21.396Z,39.78
2019-03-08T10:27:10.520Z,39.84
2019-03-08T10:30:02.803Z,39.86
2019-03-08T10:32:54.733Z,39.95
2019-03-08T10:35:54.362Z,39.99
2019-03-08T10:38:49.494Z,39.95
2019-03-08T10:41:38.665Z,40.00
2019-03-08T10:44:22.939Z,39.98
2019-03-08T10:46:59.595Z,39.98
2019-03-08T10:49:37.381Z,39.95
2019-03-08T10:52:35.896Z,39.90
2019-03-08T10:55:27.752Z,40.01
2019-03-08T10:58:20.017Z,40.02
2019-03-08T11:01:02.295Z,40.11
2019-03-08T11:03:50.600Z,40.05
2019-03-08T11:06:42.606Z,40.06
2019-03-08T11:09:42.431Z,39.99
2019-03-08T11:12:37.636Z,39.96
2019-03-08T11:15:47.094Z,39.94
2019-03-08T11:18:34.927Z,39.93
2019-03-08T11:21:36.457Z,39.96
2019-03-08T11:24:24.116Z,39.97
2019-03-08T11:27:11.972Z,39.96
2019-03-08T11:30:00.448Z,39.98
2019-03-08T11:32:38.538Z,39.97
2019-03-08T11:35:24.279Z,39.94
2019-03-08T11:38:22.835Z,39.97
2019-03-08T11:41:21.165Z,40.00
2019-03-08T11:44:16.244Z,39.97
2019-03-08T11:47:04.273Z,39.96
2019-03-08T11:49:54.466Z,39.93
2019-03-08T11:52:42.221Z,39.96
2019-03-08T11:55:31.693Z,39.97
2019-03-08T11:58:22.014Z,39.97
2019-03-08T12:01:13.974Z,39.97
2019-03-08T12:04:01.998Z,40.04
2019-03-08T12:06:47.786Z,40.06
2019-03-08T12:09:35.595Z,40.11
2019-03-08T12:12:32.288Z,40.15
2019-03-08T12:15:20.174Z,40.09
2019-03-08T12:18:21.690Z,40.09
2019-03-08T12:21:13.765Z,40.10
2019-03-08T12:24:16.947Z,40.05
2019-03-08T12:27:01.871Z,40.05
2019-03-08T12:29:46.274Z,40.06
2019-03-08T12:32:29.042Z,40.08
2019-03-08T12:35:08.548Z,40.10
2019-03-08T12:38:07.048Z,40.06
2019-03-08T12:40:55.035Z,40.06
2019-03-08T12:43:57.255Z,40.10
2019-03-08T12:46:40.547Z,40.06
2019-03-08T12:49:44.864Z,40.04
2019-03-08T12:52:24.789Z,40.06
2019-03-08T12:55:14.188Z,40.08
2019-03-08T12:57:52.689Z,40.14
2019-03-08T13:00:41.863Z,40.21
2019-03-08T13:03:30.081Z,40.26
2019-03-08T13:06:18.420Z,40.34
2019-03-08T13:09:07.605Z,40.39
2019-03-08T13:11:38.340Z,40.44
2019-03-08T13:14:08.641Z,40.47
2019-03-08T13:16:38.982Z,40.53
2019-03-08T13:19:09.270Z,40.55
2019-03-08T13:21:39.627Z,40.57
2019-03-08T13:24:10.121Z,40.62
2019-03-08T13:26:40.365Z,40.65
2019-03-08T13:29:10.625Z,40.65
2019-03-08T13:31:40.835Z,40.66
2019-03-08T13:34:11.180Z,40.72
2019-03-08T13:36:41.561Z,40.70
2019-03-08T13:39:12.682Z,40.67
2019-03-08T13:41:42.969Z,40.65
2019-03-08T13:44:13.267Z,40.69
2019-03-08T13:46:43.475Z,40.70
2019-03-08T13:49:13.883Z,40.74
2019-03-08T13:51:44.138Z,40.73
2019-03-08T13:54:14.435Z,40.73
2019-03-08T13:56:44.668Z,40.73
2019-03-08T13:59:14.923Z,40.71
2019-03-08T14:01:45.212Z,40.71
2019-03-08T14:04:15.734Z,40.74
2019-03-08T14:06:46.036Z,40.72
2019-03-08T14:09:16.244Z,40.72
2019-03-08T14:11:46.611Z,40.71
2019-03-08T14:14:17.987Z,40.70
2019-03-08T14:16:48.470Z,40.73
2019-03-08T14:19:18.689Z,40.70
2019-03-08T14:21:48.952Z,40.69
2019-03-08T14:24:19.238Z,40.65
2019-03-08T14:26:49.611Z,40.65
2019-03-08T14:29:22.254Z,40.61
2019-03-08T14:31:59.839Z,40.63
2019-03-08T14:34:30.226Z,40.60
2019-03-08T14:37:02.491Z,40.59
2019-03-08T14:39:32.858Z,40.58
2019-03-08T14:42:20.504Z,40.52
2019-03-08T14:44:58.924Z,40.53
2019-03-08T14:47:35.699Z,40.55
2019-03-08T14:50:07.425Z,40.54
2019-03-08T14:52:39.300Z,40.59
2019-03-08T14:55:12.234Z,40.53
2019-03-08T14:57:42.602Z,40.55
2019-03-08T15:00:18.110Z,40.54
2019-03-08T15:02:48.691Z,40.60
2019-03-08T15:05:20.395Z,40.54
2019-03-08T15:07:52.020Z,40.53
2019-03-08T15:10:22.278Z,40.51
2019-03-08T15:12:55.414Z,40.52
2019-03-08T15:15:25.833Z,40.50
2019-03-08T15:17:56.263Z,40.50
2019-03-08T15:20:26.630Z,40.56
2019-03-08T15:22:56.886Z,40.55
2019-03-08T15:25:29.689Z,40.56
2019-03-08T15:27:59.284Z,40.61
2019-03-08T15:30:29.602Z,40.52
2019-03-08T15:33:02.999Z,40.54
2019-03-08T15:35:33.372Z,40.51
2019-03-08T15:38:03.618Z,40.50
2019-03-08T15:40:34.946Z,40.52
2019-03-08T15:43:09.584Z,40.51
2019-03-08T15:45:40.139Z,40.49
2019-03-08T15:48:11.045Z,40.53
2019-03-08T15:50:42.788Z,40.56
2019-03-08T15:53:14.380Z,40.53
2019-03-08T15:55:52.446Z,40.51
2019-03-08T15:58:17.328Z,40.48
2019-03-08T16:00:47.652Z,40.51
2019-03-08T16:03:17.953Z,40.47
2019-03-08T16:05:48.274Z,40.44
2019-03-08T16:08:18.541Z,40.48
2019-03-08T16:10:48.752Z,40.47
2019-03-08T16:13:19.415Z,40.44
2019-03-08T16:15:49.731Z,40.42
2019-03-08T16:18:20.073Z,40.45
2019-03-08T16:20:50.295Z,40.45
2019-03-08T16:23:21.316Z,40.46
2019-03-08T16:25:51.767Z,40.48
2019-03-08T16:28:22.119Z,40.43
2019-03-08T16:30:58.512Z,40.41
2019-03-08T16:33:37.294Z,40.41
2019-03-08T16:36:18.850Z,40.38
2019-03-08T16:38:58.871Z,40.39
2019-03-08T16:41:51.083Z,40.35
2019-03-08T16:44:42.738Z,40.39
2019-03-08T16:47:37.694Z,40.36
2019-03-08T16:50:33.208Z,40.36
2019-03-08T16:53:21.137Z,40.36
2019-03-08T16:56:08.605Z,40.36
2019-03-08T16:58:59.535Z,40.38
2019-03-08T17:01:54.904Z,40.37
2019-03-08T17:04:44.165Z,40.37
2019-03-08T17:07:39.080Z,40.37
2019-03-08T17:10:46.668Z,40.35
2019-03-08T17:13:35.795Z,40.33
2019-03-08T17:16:23.783Z,40.31
2019-03-08T17:19:25.051Z,40.23
2019-03-08T17:22:04.562Z,40.27
2019-03-08T17:24:59.718Z,40.24
2019-03-08T17:27:39.889Z,40.26
2019-03-08T17:30:19.521Z,40.25
2019-03-08T17:33:08.393Z,40.23
2019-03-08T17:36:00.484Z,39.15
2019-03-08T17:38:38.866Z,38.57
2019-03-08T17:41:26.699Z,39.66
2019-03-08T17:44:22.016Z,39.73
2019-03-08T17:47:11.855Z,35.10
2019-03-08T17:50:01.206Z,33.79
2019-03-08T17:52:59.885Z,33.48
2019-03-08T17:55:47.784Z,34.12
2019-03-08T17:58:35.568Z,35.71
2019-03-08T18:01:23.406Z,36.93
2019-03-08T18:04:27.700Z,37.76
2019-03-08T18:07:35.197Z,37.89
2019-03-08T18:10:23.209Z,38.19
2019-03-08T18:13:24.384Z,38.34
2019-03-08T18:16:19.707Z,38.41
2019-03-08T18:19:24.373Z,38.57
2019-03-08T18:22:02.807Z,38.60
2019-03-08T18:25:11.596Z,38.62
2019-03-08T18:28:12.684Z,38.67
2019-03-08T18:31:11.125Z,38.75
2019-03-08T18:33:59.991Z,38.78
2019-03-08T18:36:39.577Z,38.92
2019-03-08T18:39:22.527Z,38.84
2019-03-08T18:42:17.879Z,38.93
2019-03-08T18:45:05.010Z,39.03
2019-03-08T18:47:48.398Z,39.01
2019-03-08T18:50:46.617Z,39.05
2019-03-08T18:53:29.319Z,39.12
2019-03-08T18:56:21.460Z,39.23
2019-03-08T18:59:08.372Z,39.28
2019-03-08T19:02:07.013Z,39.27
2019-03-08T19:04:53.764Z,39.23
2019-03-08T19:07:45.785Z,39.26
2019-03-08T19:10:37.831Z,39.34
2019-03-08T19:13:25.832Z,39.41
2019-03-08T19:16:21.208Z,39.41
2019-03-08T19:19:10.423Z,39.45
2019-03-08T19:21:55.714Z,39.42
2019-03-08T19:24:48.117Z,39.37
2019-03-08T19:27:36.078Z,39.34
2019-03-08T19:30:25.364Z,39.39
2019-03-08T19:33:15.361Z,39.37
2019-03-08T19:36:07.151Z,39.47
2019-03-08T19:39:01.465Z,39.50
2019-03-08T19:41:55.035Z,39.48
2019-03-08T19:44:47.283Z,39.52
2019-03-08T19:47:33.579Z,39.56
2019-03-08T19:50:29.096Z,39.63
2019-03-08T19:53:18.383Z,39.62
2019-03-08T19:56:08.913Z,39.68
2019-03-08T19:58:58.423Z,39.60
2019-03-08T20:01:49.752Z,39.57
2019-03-08T20:04:39.235Z,39.48
2019-03-08T20:07:30.705Z,39.57
2019-03-08T20:10:32.153Z,39.64
2019-03-08T20:13:29.678Z,39.58
2019-03-08T20:16:23.646Z,39.59
2019-03-08T20:19:04.663Z,39.63
2019-03-08T20:22:00.157Z,39.64
2019-03-08T20:24:48.251Z,39.71
2019-03-08T20:27:40.530Z,39.70
2019-03-08T20:30:29.654Z,39.76
2019-03-08T20:33:38.921Z,39.73
2019-03-08T20:36:18.170Z,39.72
2019-03-08T20:38:57.416Z,39.73
2019-03-08T20:41:59.453Z,39.86
2019-03-08T20:44:52.654Z,39.91
2019-03-08T20:47:26.305Z,39.86
2019-03-08T20:49:56.688Z,39.99
2019-03-08T20:52:27.186Z,39.89
2019-03-08T20:55:01.306Z,39.85
2019-03-08T20:57:32.842Z,39.78
2019-03-08T21:00:03.158Z,40.04
2019-03-08T21:02:35.024Z,40.13
2019-03-08T21:05:05.706Z,40.18
2019-03-08T21:07:36.058Z,40.24
2019-03-08T21:10:08.327Z,40.28
2019-03-08T21:12:40.274Z,40.27
2019-03-08T21:15:13.768Z,40.28
2019-03-08T21:17:47.467Z,40.33
2019-03-08T21:20:19.561Z,40.35
2019-03-08T21:22:51.775Z,40.37
2019-03-08T21:25:24.766Z,40.39
2019-03-08T21:27:55.168Z,40.43
2019-03-08T21:30:28.006Z,40.42
2019-03-08T21:32:58.348Z,40.37
2019-03-08T21:35:29.148Z,40.41
2019-03-08T21:37:59.502Z,40.45
2019-03-08T21:40:29.882Z,40.91
2019-03-08T21:43:00.376Z,40.75
2019-03-08T21:45:30.705Z,41.09
2019-03-08T21:48:01.223Z,41.26
2019-03-08T21:50:32.585Z,41.43
2019-03-08T21:53:02.914Z,41.45
2019-03-08T21:55:33.314Z,41.41
2019-03-08T21:58:03.698Z,41.35
2019-03-08T22:00:34.067Z,41.28
2019-03-08T22:03:04.405Z,41.45
2019-03-08T22:05:36.492Z,41.40
2019-03-08T22:08:16.467Z,41.45
2019-03-08T22:10:55.597Z,41.54
2019-03-08T22:13:25.875Z,41.58
2019-03-08T22:15:56.144Z,41.72
2019-03-08T22:18:26.513Z,41.76
2019-03-08T22:20:57.616Z,41.79
2019-03-08T22:23:28.961Z,41.92
2019-03-08T22:25:59.198Z,42.08
2019-03-08T22:28:29.489Z,42.08
2019-03-08T22:30:59.766Z,42.23
2019-03-08T22:33:30.038Z,42.33
2019-03-08T22:36:01.120Z,42.45
2019-03-08T22:38:31.474Z,42.62
2019-03-08T22:41:01.784Z,42.58
2019-03-08T22:43:32.087Z,42.65
2019-03-08T22:46:02.483Z,42.62
2019-03-08T22:48:32.868Z,42.64
2019-03-08T22:51:03.163Z,42.58
2019-03-08T22:53:33.365Z,42.79
2019-03-08T22:56:03.870Z,42.63
2019-03-08T22:58:34.142Z,42.76
2019-03-08T23:01:10.781Z,42.75
2019-03-08T23:03:42.701Z,42.65
2019-03-08T23:06:12.953Z,42.90
2019-03-08T23:08:43.234Z,43.03
2019-03-08T23:11:13.509Z,43.11
2019-03-08T23:13:43.850Z,42.90
2019-03-08T23:16:14.090Z,42.63
2019-03-08T23:18:44.683Z,42.64
2019-03-08T23:21:14.932Z,42.49
2019-03-08T23:23:45.262Z,42.25
2019-03-08T23:26:15.558Z,42.35
2019-03-08T23:29:08.372Z,42.35
2019-03-08T23:31:57.566Z,42.34
2019-03-08T23:34:27.970Z,42.34
2019-03-08T23:36:58.215Z,42.35
2019-03-08T23:39:28.596Z,42.26
2019-03-08T23:41:58.801Z,42.26
2019-03-08T23:44:29.149Z,42.32
2019-03-08T23:46:59.724Z,42.35
2019-03-08T23:49:30.084Z,42.26
2019-03-08T23:52:00.397Z,42.14
2019-03-08T23:54:30.685Z,42.13
2019-03-08T23:57:00.999Z,42.17
2019-03-08T23:59:32.783Z,42.13
